createdAt,value
2022-11-18T00:02:05.915Z,99025.78
2022-11-18T00:04:32.669Z,99024.94
2022-11-18T00:06:59.536Z,99018.13
2022-11-18T00:09:26.226Z,99025.00
2022-11-18T00:12:11.602Z,99026.81
2022-11-18T00:14:38.334Z,99018.22
2022-11-18T00:17:06.782Z,99032.00
2022-11-18T00:19:38.629Z,99026.00
2022-11-18T00:22:07.447Z,99040.69
2022-11-18T00:24:34.388Z,99035.53
2022-11-18T00:27:01.107Z,99036.41
2022-11-18T00:29:28.670Z,99028.69
2022-11-18T00:31:56.709Z,99035.53
2022-11-18T00:34:25.446Z,99033.00
2022-11-18T00:36:52.031Z,99039.91
2022-11-18T00:39:20.617Z,99033.06
2022-11-18T00:42:06.558Z,99037.38
2022-11-18T00:44:33.528Z,99039.09
2022-11-18T00:47:00.260Z,99039.97
2022-11-18T00:49:26.867Z,99039.16
2022-11-18T00:51:53.503Z,99055.50
2022-11-18T00:54:20.274Z,99053.78
2022-11-18T00:56:46.967Z,99055.56
2022-11-18T00:59:13.532Z,99064.19
2022-11-18T01:01:40.174Z,99069.34
2022-11-18T01:04:06.943Z,99058.16
2022-11-18T01:06:33.500Z,99070.19
2022-11-18T01:09:00.099Z,99064.16
2022-11-18T01:11:45.310Z,99077.97
2022-11-18T01:14:11.894Z,99073.69
2022-11-18T01:16:38.534Z,99090.13
2022-11-18T01:19:05.097Z,99088.41
2022-11-18T01:21:31.861Z,99091.03
2022-11-18T01:23:58.540Z,99092.75
2022-11-18T01:26:25.191Z,99098.78
2022-11-18T01:28:55.637Z,99107.41
2022-11-18T01:31:22.243Z,99111.72
2022-11-18T01:33:48.796Z,99096.22
2022-11-18T01:36:15.304Z,99107.41
2022-11-18T01:38:41.982Z,99106.56
2022-11-18T01:41:08.685Z,99105.72
2022-11-18T01:43:51.970Z,99107.41
2022-11-18T01:46:19.503Z,99095.34
2022-11-18T01:48:50.357Z,99100.53
2022-11-18T01:51:21.148Z,99110.84
2022-11-18T01:54:00.260Z,99098.78
2022-11-18T01:56:36.431Z,99110.88
2022-11-18T01:59:08.041Z,99107.41
2022-11-18T02:01:34.768Z,99116.91
2022-11-18T02:04:01.377Z,99094.47
2022-11-18T02:06:27.994Z,99096.16
2022-11-18T02:08:55.993Z,99106.53
2022-11-18T02:11:41.387Z,99091.88
2022-11-18T02:14:10.112Z,99108.22
2022-11-18T02:16:45.850Z,99113.41
2022-11-18T02:19:37.285Z,99125.50
2022-11-18T02:22:25.785Z,99129.81
2022-11-18T02:25:21.788Z,99135.00
2022-11-18T02:28:10.182Z,99130.69
2022-11-18T02:30:48.896Z,99132.38
2022-11-18T02:33:26.487Z,99128.91
2022-11-18T02:36:01.038Z,99115.13
2022-11-18T02:38:36.830Z,99140.13
2022-11-18T02:41:10.627Z,99120.25
2022-11-18T02:43:43.838Z,99131.50
2022-11-18T02:46:16.290Z,99134.06
2022-11-18T02:48:48.586Z,99147.88
2022-11-18T02:51:19.770Z,99142.69
2022-11-18T02:53:49.275Z,99150.44
2022-11-18T02:56:17.695Z,99156.44
2022-11-18T02:58:44.369Z,99152.97
2022-11-18T03:01:25.373Z,99153.84
2022-11-18T03:03:51.940Z,99159.00
2022-11-18T03:06:33.768Z,99123.63
2022-11-18T03:09:15.740Z,99152.00
2022-11-18T03:12:14.782Z,99160.50
2022-11-18T03:15:00.417Z,99163.16
2022-11-18T03:17:48.599Z,99167.41
2022-11-18T03:20:25.116Z,99163.06
2022-11-18T03:23:03.642Z,99166.50
2022-11-18T03:25:30.240Z,99180.28
2022-11-18T03:28:06.964Z,99177.72
2022-11-18T03:30:38.574Z,99182.78
2022-11-18T03:33:11.813Z,99182.81
2022-11-18T03:35:43.131Z,99184.56
2022-11-18T03:38:16.873Z,99193.22
2022-11-18T03:40:50.548Z,99190.63
2022-11-18T03:43:21.710Z,99207.84
2022-11-18T03:46:13.457Z,99197.53
2022-11-18T03:49:00.885Z,99204.50
2022-11-18T03:51:36.798Z,99204.50
2022-11-18T03:54:11.753Z,99202.84
2022-11-18T03:56:43.697Z,99208.06
2022-11-18T03:59:19.497Z,99201.94
2022-11-18T04:01:54.933Z,99208.00
2022-11-18T04:04:23.076Z,99205.41
2022-11-18T04:06:55.245Z,99205.44
2022-11-18T04:09:27.353Z,99213.22
2022-11-18T04:12:04.437Z,99215.81
2022-11-18T04:14:37.590Z,99230.50
2022-11-18T04:17:12.112Z,99223.63
2022-11-18T04:19:39.061Z,99222.78
2022-11-18T04:22:06.630Z,99227.09
2022-11-18T04:24:33.597Z,99221.84
2022-11-18T04:27:02.766Z,99227.94
2022-11-18T04:29:33.450Z,99222.78
2022-11-18T04:32:01.577Z,99234.03
2022-11-18T04:34:29.037Z,99228.84
2022-11-18T04:36:56.532Z,99229.72
2022-11-18T04:39:23.179Z,99237.47
2022-11-18T04:41:55.677Z,99239.25
2022-11-18T04:44:26.714Z,99246.19
2022-11-18T04:46:54.735Z,99240.16
2022-11-18T04:49:21.820Z,99241.00
2022-11-18T04:51:48.728Z,99241.84
2022-11-18T04:54:16.012Z,99241.00
2022-11-18T04:56:48.709Z,99230.63
2022-11-18T04:59:18.475Z,99229.75
2022-11-18T05:01:45.396Z,99242.72
2022-11-18T05:04:17.713Z,99251.34
2022-11-18T05:06:44.548Z,99245.22
2022-11-18T05:09:11.659Z,99264.25
2022-11-18T05:11:56.832Z,99256.50
2022-11-18T05:14:27.920Z,99258.94
2022-11-18T05:16:56.215Z,99264.16
2022-11-18T05:19:23.619Z,99266.69
2022-11-18T05:21:50.281Z,99259.81
2022-11-18T05:24:17.180Z,99265.00
2022-11-18T05:26:44.127Z,99268.44
2022-11-18T05:29:11.173Z,99275.38
2022-11-18T05:31:37.886Z,99277.06
2022-11-18T05:34:04.677Z,99284.72
2022-11-18T05:36:31.216Z,99286.38
2022-11-18T05:39:02.132Z,99291.63
2022-11-18T05:41:47.807Z,99296.88
2022-11-18T05:44:14.612Z,99299.28
2022-11-18T05:46:41.499Z,99297.38
2022-11-18T05:49:08.421Z,99294.13
2022-11-18T05:51:35.701Z,99301.81
2022-11-18T05:54:08.299Z,99307.72
2022-11-18T05:56:38.068Z,99312.09
2022-11-18T05:59:04.774Z,99298.44
2022-11-18T06:01:38.111Z,99312.31
2022-11-18T06:04:11.898Z,99313.13
2022-11-18T06:06:39.042Z,99307.97
2022-11-18T06:09:08.574Z,99315.72
2022-11-18T06:11:43.643Z,99323.53
2022-11-18T06:14:17.466Z,99320.13
2022-11-18T06:16:50.147Z,99323.59
2022-11-18T06:19:17.303Z,99321.03
2022-11-18T06:21:45.313Z,99342.63
2022-11-18T06:24:13.595Z,99336.66
2022-11-18T06:26:41.376Z,99334.94
2022-11-18T06:29:11.370Z,99342.72
2022-11-18T06:31:37.910Z,99359.09
2022-11-18T06:34:04.520Z,99357.22
2022-11-18T06:36:31.139Z,99363.28
2022-11-18T06:39:03.272Z,99361.50
2022-11-18T06:41:30.106Z,99366.78
2022-11-18T06:43:56.834Z,99365.94
2022-11-18T06:46:41.947Z,99369.31
2022-11-18T06:49:08.956Z,99371.06
2022-11-18T06:51:35.651Z,99377.91
2022-11-18T06:54:07.423Z,99377.19
2022-11-18T06:56:37.558Z,99368.50
2022-11-18T06:59:04.826Z,99386.69
2022-11-18T07:01:38.379Z,99388.28
2022-11-18T07:04:05.608Z,99388.28
2022-11-18T07:06:34.321Z,99397.09
2022-11-18T07:09:02.513Z,99395.28
2022-11-18T07:11:29.508Z,99397.00
2022-11-18T07:13:56.554Z,99411.03
2022-11-18T07:16:25.446Z,99406.75
2022-11-18T07:18:53.381Z,99423.03
2022-11-18T07:21:22.163Z,99422.22
2022-11-18T07:23:49.287Z,99422.25
2022-11-18T07:26:16.573Z,99417.03
2022-11-18T07:28:43.333Z,99430.94
2022-11-18T07:31:15.284Z,99436.16
2022-11-18T07:33:43.379Z,99437.91
2022-11-18T07:36:12.962Z,99434.50
2022-11-18T07:38:40.512Z,99445.75
2022-11-18T07:41:10.148Z,99459.53
2022-11-18T07:43:38.012Z,99459.50
2022-11-18T07:46:23.015Z,99472.50
2022-11-18T07:48:51.772Z,99462.19
2022-11-18T07:51:20.006Z,99473.47
2022-11-18T07:53:47.388Z,99472.63
2022-11-18T07:56:14.859Z,99475.22
2022-11-18T07:58:42.358Z,99483.84
2022-11-18T08:01:18.195Z,99487.34
2022-11-18T08:03:46.117Z,99480.44
2022-11-18T08:06:16.182Z,99489.00
2022-11-18T08:08:43.567Z,99501.16
2022-11-18T08:11:15.166Z,99500.28
2022-11-18T08:13:45.486Z,99496.84
2022-11-18T08:16:21.284Z,99508.97
2022-11-18T08:18:48.337Z,99508.97
2022-11-18T08:21:15.962Z,99516.78
2022-11-18T08:23:42.976Z,99512.47
2022-11-18T08:26:14.741Z,99509.00
2022-11-18T08:28:42.550Z,99513.31
2022-11-18T08:31:18.997Z,99505.56
2022-11-18T08:33:46.456Z,99509.91
2022-11-18T08:36:17.566Z,99506.38
2022-11-18T08:38:47.403Z,99508.06
2022-11-18T08:41:20.472Z,99506.38
2022-11-18T08:43:47.206Z,99516.78
2022-11-18T08:46:14.480Z,99507.28
2022-11-18T08:48:41.481Z,99505.56
2022-11-18T08:51:12.409Z,99505.59
2022-11-18T08:53:39.006Z,99502.09
2022-11-18T08:56:05.978Z,99514.19
2022-11-18T08:58:32.903Z,99519.38
2022-11-18T09:01:05.342Z,99516.66
2022-11-18T09:03:32.241Z,99524.44
2022-11-18T09:06:16.906Z,99521.91
2022-11-18T09:08:46.274Z,99509.00
2022-11-18T09:11:18.311Z,99526.31
2022-11-18T09:14:53.545Z,99528.06
2022-11-18T09:16:34.648Z,99531.50
2022-11-18T09:19:18.230Z,99533.25
2022-11-18T09:21:48.472Z,99536.66
2022-11-18T09:24:16.067Z,99540.13
2022-11-18T09:26:43.106Z,99547.03
2022-11-18T09:29:12.783Z,99541.03
2022-11-18T09:31:39.756Z,99553.97
2022-11-18T09:34:10.434Z,99547.06
2022-11-18T09:36:37.557Z,99550.50
2022-11-18T09:39:04.664Z,99550.50
2022-11-18T09:41:44.858Z,99550.50
2022-11-18T09:44:42.670Z,99566.13
2022-11-18T09:47:32.034Z,99564.34
2022-11-18T09:50:20.297Z,99577.31
2022-11-18T09:53:20.994Z,99572.94
2022-11-18T09:55:49.554Z,99579.91
2022-11-18T09:58:29.446Z,99581.59
2022-11-18T10:00:56.076Z,99584.28
2022-11-18T10:03:31.616Z,99589.50
2022-11-18T10:06:04.026Z,99588.59
2022-11-18T10:08:55.710Z,99589.44
2022-11-18T10:11:28.609Z,99587.75
2022-11-18T10:14:30.345Z,99589.41
2022-11-18T10:17:07.103Z,99589.47
2022-11-18T10:19:38.518Z,99597.13
2022-11-18T10:22:53.760Z,99600.66
2022-11-18T10:25:20.595Z,99611.88
2022-11-18T10:27:49.539Z,99607.53
2022-11-18T10:30:22.318Z,99609.25
2022-11-18T10:33:04.418Z,99606.69
2022-11-18T10:35:37.618Z,99609.31
2022-11-18T10:38:17.485Z,99613.69
2022-11-18T10:40:56.261Z,99614.56
2022-11-18T10:43:43.584Z,99622.38
2022-11-18T10:46:33.595Z,99626.66
2022-11-18T10:49:06.759Z,99628.28
2022-11-18T10:51:33.377Z,99626.53
2022-11-18T10:54:21.333Z,99642.03
2022-11-18T10:56:57.853Z,99632.59
2022-11-18T10:59:31.419Z,99635.22
2022-11-18T11:02:33.443Z,99640.34
2022-11-18T11:05:05.046Z,99646.38
2022-11-18T11:07:32.966Z,99650.56
2022-11-18T11:10:06.625Z,99649.69
2022-11-18T11:12:35.592Z,99654.03
2022-11-18T11:15:06.431Z,99657.41
2022-11-18T11:17:40.907Z,99654.84
2022-11-18T11:20:18.153Z,99660.84
2022-11-18T11:22:46.032Z,99662.41
2022-11-18T11:25:18.810Z,99665.88
2022-11-18T11:28:16.919Z,99664.06
2022-11-18T11:31:21.872Z,99666.00
2022-11-18T11:34:33.801Z,99667.56
2022-11-18T11:37:14.791Z,99671.13
2022-11-18T11:43:41.673Z,99674.50
2022-11-18T11:46:36.216Z,99671.78
2022-11-18T11:49:19.203Z,99680.25
2022-11-18T11:51:54.747Z,99668.03
2022-11-18T11:54:31.298Z,99680.88
2022-11-18T11:57:04.607Z,99686.09
2022-11-18T11:59:43.274Z,99652.25
2022-11-18T12:02:31.669Z,99679.28
2022-11-18T12:05:08.844Z,99643.75
2022-11-18T12:07:47.699Z,99666.97
2022-11-18T12:10:29.964Z,99691.09
2022-11-18T12:13:02.595Z,99686.84
2022-11-18T12:16:00.166Z,99684.34
2022-11-18T12:18:37.551Z,99690.16
2022-11-18T12:21:04.235Z,99687.50
2022-11-18T12:23:32.988Z,99696.16
2022-11-18T12:26:00.913Z,99696.06
2022-11-18T12:28:30.838Z,99690.75
2022-11-18T12:31:34.363Z,99703.66
2022-11-18T12:34:04.805Z,99703.72
2022-11-18T12:36:40.182Z,99704.75
2022-11-18T12:39:25.253Z,99712.97
2022-11-18T12:42:23.775Z,99716.34
2022-11-18T12:44:52.570Z,99706.88
2022-11-18T12:47:51.467Z,99712.63
2022-11-18T12:50:18.074Z,99716.03
2022-11-18T12:52:49.047Z,99721.06
2022-11-18T12:55:25.975Z,99715.19
2022-11-18T12:57:53.011Z,99725.66
2022-11-18T13:00:22.471Z,99723.19
2022-11-18T13:02:57.289Z,99710.91
2022-11-18T13:05:26.912Z,99717.00
2022-11-18T13:08:15.844Z,99728.00
2022-11-18T13:11:13.285Z,99731.56
2022-11-18T13:13:41.382Z,99732.56
2022-11-18T13:16:39.693Z,99734.16
2022-11-18T13:19:06.523Z,99723.78
2022-11-18T13:21:52.213Z,99735.88
2022-11-18T13:24:21.902Z,99739.47
2022-11-18T13:26:53.361Z,99750.69
2022-11-18T13:29:54.190Z,99748.91
2022-11-18T13:32:29.022Z,99740.25
2022-11-18T13:34:58.378Z,99742.06
2022-11-18T13:37:28.800Z,99745.53
2022-11-18T13:39:56.106Z,99757.44
2022-11-18T13:42:25.376Z,99754.91
2022-11-18T13:44:57.564Z,99753.13
2022-11-18T13:47:30.658Z,99761.31
2022-11-18T13:50:25.371Z,99760.13
2022-11-18T13:53:07.205Z,99770.47
2022-11-18T13:55:50.337Z,99766.38
2022-11-18T13:58:19.976Z,99783.88
2022-11-18T14:00:57.418Z,99780.81
2022-11-18T14:03:34.395Z,99776.78
2022-11-18T14:06:02.325Z,99780.47
2022-11-18T14:08:32.736Z,99782.88
2022-11-18T14:11:00.459Z,99788.00
2022-11-18T14:13:28.376Z,99785.25
2022-11-18T14:15:57.581Z,99786.53
2022-11-18T14:18:37.362Z,99786.06
2022-11-18T14:21:05.879Z,99785.19
2022-11-18T14:23:34.898Z,99791.69
2022-11-18T14:26:04.320Z,99797.09
2022-11-18T14:28:34.073Z,99798.22
2022-11-18T14:31:09.900Z,99781.16
2022-11-18T14:33:38.061Z,99799.78
2022-11-18T14:36:14.216Z,99788.59
2022-11-18T14:41:48.612Z,99798.41
2022-11-18T14:44:16.125Z,99802.25
2022-11-18T14:46:46.236Z,99802.31
2022-11-18T14:49:17.004Z,99821.72
2022-11-18T14:51:45.259Z,99807.78
2022-11-18T14:54:13.970Z,99814.63
2022-11-18T14:56:42.008Z,99829.31
2022-11-18T14:59:16.351Z,99813.75
2022-11-18T15:01:44.858Z,99828.13
2022-11-18T15:04:12.323Z,99839.31
2022-11-18T15:06:39.807Z,99833.88
2022-11-18T15:09:10.596Z,99830.59
2022-11-18T15:11:37.161Z,99839.88
2022-11-18T15:14:04.151Z,99826.97
2022-11-18T15:16:32.662Z,99835.13
2022-11-18T15:19:03.352Z,99841.47
2022-11-18T15:21:30.777Z,99852.00
2022-11-18T15:23:57.702Z,99854.06
2022-11-18T15:26:49.258Z,99858.78
2022-11-18T15:29:22.354Z,99857.91
2022-11-18T15:31:49.562Z,99870.50
2022-11-18T15:34:18.178Z,99876.34
2022-11-18T15:36:45.318Z,99869.78
2022-11-18T15:39:12.243Z,99868.31
2022-11-18T15:41:40.763Z,99878.66
2022-11-18T15:44:09.832Z,99888.38
2022-11-18T15:46:36.517Z,99892.16
2022-11-18T15:49:03.439Z,99891.94
2022-11-18T15:51:30.867Z,99883.75
2022-11-18T15:53:58.384Z,99893.25
2022-11-18T15:56:28.516Z,99907.91
2022-11-18T15:58:59.083Z,99898.66
2022-11-18T16:01:28.274Z,99893.25
2022-11-18T16:03:55.429Z,99907.38
2022-11-18T16:06:22.796Z,99904.00
2022-11-18T16:08:52.197Z,99907.25
2022-11-18T16:11:41.195Z,99913.13
2022-11-18T16:14:10.502Z,99920.56
2022-11-18T16:16:40.474Z,99917.78
2022-11-18T16:19:09.074Z,99912.16
2022-11-18T16:21:38.786Z,99913.72
2022-11-18T16:24:08.032Z,99894.56
2022-11-18T16:26:36.973Z,99903.88
2022-11-18T16:29:05.453Z,99931.34
2022-11-18T16:31:41.581Z,99919.06
2022-11-18T16:34:13.603Z,99932.00
2022-11-18T16:36:42.526Z,99932.63
2022-11-18T16:39:12.592Z,99932.59
2022-11-18T16:41:40.883Z,99935.63
2022-11-18T16:44:09.572Z,99952.13
2022-11-18T16:46:38.378Z,99951.84
2022-11-18T16:49:05.852Z,99958.41
2022-11-18T16:51:34.985Z,99964.38
2022-11-18T16:54:06.943Z,99955.34
2022-11-18T16:56:35.702Z,99971.25
2022-11-18T16:59:11.439Z,99983.09
2022-11-18T17:01:38.337Z,99972.69
2022-11-18T17:04:06.062Z,99979.63
2022-11-18T17:06:32.936Z,99954.91
2022-11-18T17:09:00.176Z,99945.91
2022-11-18T17:11:27.898Z,99974.31
2022-11-18T17:13:57.918Z,99962.44
2022-11-18T17:16:26.577Z,99986.34
2022-11-18T17:18:58.844Z,99990.34
2022-11-18T17:21:27.345Z,100002.19
2022-11-18T17:23:54.783Z,99993.75
2022-11-18T17:26:24.365Z,100007.34
2022-11-18T17:28:51.027Z,100002.28
2022-11-18T17:31:22.864Z,100018.09
2022-11-18T17:33:52.586Z,99972.13
2022-11-18T17:36:20.499Z,100010.59
2022-11-18T17:38:49.043Z,100007.09
2022-11-18T17:41:37.001Z,100021.00
2022-11-18T17:44:05.999Z,100010.97
2022-11-18T17:46:37.952Z,99992.28
2022-11-18T17:49:08.045Z,100009.69
2022-11-18T17:51:34.854Z,100045.84
2022-11-18T17:54:01.648Z,100023.31
2022-11-18T17:56:28.406Z,100041.59
2022-11-18T17:59:35.325Z,100060.75
2022-11-18T18:02:26.471Z,99993.81
2022-11-18T18:04:49.834Z,100069.19
2022-11-18T18:07:16.510Z,100066.03
2022-11-18T18:09:43.534Z,100046.25
2022-11-18T18:12:28.911Z,100040.53
2022-11-18T18:14:55.935Z,100085.44
2022-11-18T18:17:22.715Z,100080.81
2022-11-18T18:19:49.405Z,100092.38
2022-11-18T18:22:17.444Z,100060.91
2022-11-18T18:24:44.143Z,100080.19
2022-11-18T18:27:10.980Z,100057.44
2022-11-18T18:29:37.641Z,100051.94
2022-11-18T18:32:04.676Z,100076.72
2022-11-18T18:34:31.278Z,100074.66
2022-11-18T18:36:57.912Z,100101.88
2022-11-18T18:39:24.574Z,100090.81
2022-11-18T18:41:51.287Z,100078.78
2022-11-18T18:44:18.969Z,100087.06
2022-11-18T18:46:45.672Z,100079.31
2022-11-18T18:49:14.409Z,100118.28
2022-11-18T18:51:45.159Z,100086.59
2022-11-18T18:54:14.052Z,100125.72
2022-11-18T18:56:43.509Z,100107.72
2022-11-18T18:59:49.436Z,100133.22
2022-11-18T19:02:16.307Z,100107.16
2022-11-18T19:04:45.669Z,100089.25
2022-11-18T19:07:12.423Z,100126.25
2022-11-18T19:09:39.188Z,100127.28
2022-11-18T19:12:25.395Z,100129.41
2022-11-18T19:14:52.099Z,100137.59
2022-11-18T19:17:18.945Z,100137.59
2022-11-18T19:20:04.281Z,100115.25
2022-11-18T19:22:32.729Z,100130.22
2022-11-18T19:25:01.403Z,100142.88
2022-11-18T19:27:29.700Z,100152.31
2022-11-18T19:29:56.426Z,100151.91
2022-11-18T19:32:23.482Z,100157.34
2022-11-18T19:34:50.449Z,100164.72
2022-11-18T19:37:22.758Z,100142.09
2022-11-18T19:39:53.603Z,100163.50
2022-11-18T19:42:20.274Z,100181.41
2022-11-18T19:44:46.942Z,100158.50
2022-11-18T19:47:13.628Z,100189.00
2022-11-18T19:49:40.226Z,100170.63
2022-11-18T19:52:07.434Z,100177.88
2022-11-18T19:54:34.072Z,100155.47
2022-11-18T19:57:27.403Z,100201.38
2022-11-18T19:59:55.541Z,100141.34
2022-11-18T20:02:22.419Z,100202.50
2022-11-18T20:05:07.738Z,100212.50
2022-11-18T20:07:34.651Z,100170.34
2022-11-18T20:10:01.611Z,100209.38
2022-11-18T20:12:28.553Z,100195.41
2022-11-18T20:14:55.536Z,100171.66
2022-11-18T20:17:24.207Z,100172.84
2022-11-18T20:19:53.463Z,100192.03
2022-11-18T20:22:20.195Z,100183.66
2022-11-18T20:24:47.893Z,100215.97
2022-11-18T20:27:17.154Z,100195.19
2022-11-18T20:29:44.651Z,100212.75
2022-11-18T20:32:11.280Z,100192.97
2022-11-18T20:34:39.855Z,100216.41
2022-11-18T20:37:06.499Z,100177.84
2022-11-18T20:39:33.116Z,100209.22
2022-11-18T20:42:18.508Z,100181.97
2022-11-18T20:44:45.287Z,100205.22
2022-11-18T20:47:11.955Z,100201.66
2022-11-18T20:49:38.748Z,100226.88
2022-11-18T20:52:05.601Z,100227.97
2022-11-18T20:54:33.671Z,100222.59
2022-11-18T20:57:00.420Z,100214.88
2022-11-18T20:59:27.200Z,100215.00
2022-11-18T21:01:53.915Z,100202.81
2022-11-18T21:04:20.589Z,100228.69
2022-11-18T21:06:47.798Z,100212.59
2022-11-18T21:09:16.871Z,100235.34
2022-11-18T21:11:43.848Z,100237.56
2022-11-18T21:14:24.773Z,100220.13
2022-11-18T21:17:07.705Z,100199.38
2022-11-18T21:19:37.466Z,100245.97
2022-11-18T21:22:04.552Z,100244.78
2022-11-18T21:24:33.080Z,100206.94
2022-11-18T21:27:00.985Z,100252.56
2022-11-18T21:29:30.244Z,100239.31
2022-11-18T21:31:58.230Z,100257.19
2022-11-18T21:34:24.890Z,100226.53
2022-11-18T21:36:54.861Z,100220.34
2022-11-18T21:39:25.491Z,100264.34
2022-11-18T21:41:56.586Z,100255.47
2022-11-18T21:44:23.912Z,100260.09
2022-11-18T21:46:50.606Z,100239.47
2022-11-18T21:49:17.599Z,100241.09
2022-11-18T21:51:44.617Z,100257.66
2022-11-18T21:54:12.566Z,100246.13
2022-11-18T21:56:39.179Z,100235.72
2022-11-18T21:59:07.452Z,100260.44
2022-11-18T22:01:34.036Z,100254.97
2022-11-18T22:04:02.770Z,100273.03
2022-11-18T22:06:31.497Z,100262.59
2022-11-18T22:08:59.073Z,100257.25
2022-11-18T22:11:25.982Z,100256.78
2022-11-18T22:13:53.717Z,100262.53
2022-11-18T22:16:22.884Z,100264.00
2022-11-18T22:18:56.464Z,100279.34
2022-11-18T22:21:28.684Z,100270.34
2022-11-18T22:24:00.550Z,100275.09
2022-11-18T22:26:28.165Z,100271.03
2022-11-18T22:28:56.693Z,100288.09
2022-11-18T22:31:24.839Z,100288.69
2022-11-18T22:33:52.249Z,100280.81
2022-11-18T22:36:21.366Z,100290.56
2022-11-18T22:38:48.561Z,100295.25
2022-11-18T22:41:54.148Z,100293.94
2022-11-18T22:44:20.840Z,100297.84
2022-11-18T22:46:47.574Z,100299.84
2022-11-18T22:49:14.380Z,100307.69
2022-11-18T22:51:41.176Z,100299.75
2022-11-18T22:56:56.209Z,100298.78
2022-11-18T22:59:23.669Z,100313.38
2022-11-18T23:01:51.565Z,100310.66
2022-11-18T23:04:18.221Z,100307.78
2022-11-18T23:06:45.042Z,100319.31
2022-11-18T23:09:11.865Z,100305.09
2022-11-18T23:11:57.124Z,100310.22
2022-11-18T23:14:23.752Z,100320.34
2022-11-18T23:16:50.443Z,100328.84
2022-11-18T23:19:18.076Z,100336.13
2022-11-18T23:21:45.524Z,100326.69
2022-11-18T23:24:14.416Z,100325.31
2022-11-18T23:26:41.809Z,100342.44
2022-11-18T23:29:08.490Z,100345.44
2022-11-18T23:31:35.277Z,100341.25
2022-11-18T23:34:01.894Z,100346.13
2022-11-18T23:36:28.569Z,100348.00
2022-11-18T23:38:55.241Z,100351.41
2022-11-18T23:41:22.094Z,100347.97
2022-11-18T23:43:49.281Z,100343.81
2022-11-18T23:46:17.906Z,100355.16
2022-11-18T23:48:45.400Z,100338.31
2022-11-18T23:51:13.440Z,100352.75
2022-11-18T23:53:40.797Z,100352.75
2022-11-18T23:56:13.316Z,100359.50
2022-11-18T23:58:41.357Z,100359.88
